Huvudsida
METAR-TAF:

METAR-TAF

Flygplatser :

Librevilles internationella flygplats

Libreville, Gabon

latitud: 00-27N, longitud: 009-25E, höjd: 12 m

Aktuellt väderrapport

Denna rapport gjordes för 25 minuter sedan, klockan 14:30 UTC
Vind 9 kt från väst/sydväst
Temperatur 31°C
Fuktighet 71%
Tryck 1008 hPa
Sikt 10 km eller mer
Få moln på en höjd av 1500 ft
Få moln på en höjd av 2000 ft, Cumulonimbus.

METAR: FOOL 231430Z 24009KT 9999 FEW015 FEW020CB 31/25 Q1008 NOSIG

Tid: 15:55 (14:55 UTC)

Väderprognos

Denna rapport gjordes för 3 timmar och 55 minuter sedan, klockan 11:00 UTC
Prognos gäller från 23 kl. 12 UTC till 24 kl. 18 UTC
Vind 6 kt från syd/sydväst
Sikt 10 km eller mer
Spridda moln på en höjd av 1300 ft
Få moln på en höjd av 2000 ft, Cumulonimbus.
Brutna moln på en höjd av 3500 ft
Sannolikhet 30% :
Temporärt
från 23 kl. 17 UTC till 24 kl. 02 UTC
åska

TAF: FOOL 231100Z 2312/2418 20006KT 9999 SCT013 FEW020CB BKN035 PROB30 TEMPO 2317/2402 TS

Aktuella väderrapporter och prognoser från 4000 flygplatser (METAR- och TAF-rapporter).

De tillgängliga stationerna syns som gula och röda prickar på kartan.

För musen över prickarna för att se namnen på stationerna.

Klicka sedan för att få väderrapporter och prognoser.

För att ändra kartan: Klicka på de gröna knapparna med ett svart kors på för att zooma in; den gröna knappen med ett streck på för att zooma ut; eller på de gröna pilarna för angränsande kartor.


METAR-TAF: